createdAt,value
2022-09-06T00:01:16.277Z,100989.75
2022-09-06T00:03:44.893Z,100989.44
2022-09-06T00:06:19.006Z,100988.56
2022-09-06T00:08:48.063Z,100987.72
2022-09-06T00:11:16.822Z,100989.59
2022-09-06T00:13:45.096Z,100985.88
2022-09-06T00:16:18.920Z,100991.94
2022-09-06T00:18:46.874Z,100992.97
2022-09-06T00:21:25.574Z,100984.19
2022-09-06T00:23:53.752Z,100978.28
2022-09-06T00:26:22.427Z,100978.28
2022-09-06T00:28:50.150Z,100983.19
2022-09-06T00:31:24.579Z,100989.59
2022-09-06T00:33:52.724Z,100994.31
2022-09-06T00:36:21.535Z,100990.78
2022-09-06T00:38:49.496Z,100995.16
2022-09-06T00:41:17.566Z,100985.19
2022-09-06T00:43:45.184Z,100988.56
2022-09-06T00:46:27.055Z,100999.38
2022-09-06T00:49:31.362Z,101007.28
2022-09-06T00:52:13.751Z,101000.06
2022-09-06T00:54:42.340Z,101002.75
2022-09-06T00:57:10.684Z,101020.97
2022-09-06T00:59:40.133Z,101014.72
2022-09-06T01:02:09.538Z,101020.47
2022-09-06T01:04:40.526Z,101025.84
2022-09-06T01:07:14.054Z,101021.44
2022-09-06T01:09:53.838Z,101018.75
2022-09-06T01:12:31.195Z,101015.22
2022-09-06T01:15:06.100Z,101017.06
2022-09-06T01:17:52.521Z,101027.22
2022-09-06T01:20:29.261Z,101020.09
2022-09-06T01:23:15.161Z,101022.81
2022-09-06T01:25:48.648Z,101022.81
2022-09-06T01:28:22.253Z,101014.56
2022-09-06T01:31:03.155Z,101019.94
2022-09-06T01:33:54.436Z,101011.00
2022-09-06T01:36:27.101Z,101016.06
2022-09-06T01:38:54.689Z,101018.59
2022-09-06T01:41:22.229Z,101016.75
2022-09-06T01:43:52.679Z,101013.03
2022-09-06T01:46:39.937Z,101019.28
2022-09-06T01:49:20.599Z,101016.41
2022-09-06T01:52:06.589Z,101008.16
2022-09-06T01:54:40.101Z,101009.00
2022-09-06T01:57:13.982Z,101008.16
2022-09-06T02:00:03.885Z,101010.84
2022-09-06T02:02:51.647Z,101010.00
2022-09-06T02:05:35.067Z,101016.06
2022-09-06T02:08:11.880Z,101011.38
2022-09-06T02:10:43.361Z,100995.16
2022-09-06T02:13:14.024Z,100991.59
2022-09-06T02:15:54.348Z,100978.28
2022-09-06T02:18:28.248Z,100958.88
2022-09-06T02:20:59.073Z,100949.78
2022-09-06T02:23:30.173Z,100921.09
2022-09-06T02:26:04.556Z,100927.34
2022-09-06T02:28:32.406Z,100941.69
2022-09-06T02:31:04.499Z,100956.88
2022-09-06T02:33:35.815Z,100972.38
2022-09-06T02:36:07.420Z,100968.00
2022-09-06T02:38:37.939Z,100955.50
2022-09-06T02:41:06.552Z,100945.88
2022-09-06T02:43:34.423Z,100944.06
2022-09-06T02:46:02.284Z,100964.13
2022-09-06T02:48:30.090Z,100959.56
2022-09-06T02:50:57.726Z,100960.59
2022-09-06T02:53:25.252Z,100951.66
2022-09-06T02:55:53.311Z,100958.53
2022-09-06T02:58:21.048Z,100967.47
2022-09-06T03:00:51.280Z,100968.50
2022-09-06T03:03:22.590Z,100974.41
2022-09-06T03:05:51.641Z,100968.84
2022-09-06T03:08:21.253Z,100975.25
2022-09-06T03:10:54.272Z,100967.31
2022-09-06T03:13:23.391Z,100976.44
2022-09-06T03:15:57.216Z,100987.22
2022-09-06T03:18:26.139Z,100987.06
2022-09-06T03:20:56.178Z,100983.19
2022-09-06T03:23:26.479Z,100979.78
2022-09-06T03:25:54.364Z,100971.03
2022-09-06T03:28:23.298Z,100969.66
2022-09-06T03:30:51.985Z,100968.00
2022-09-06T03:33:20.639Z,100964.78
2022-09-06T03:35:56.413Z,100967.63
2022-09-06T03:38:25.969Z,100953.66
2022-09-06T03:40:54.153Z,100954.84
2022-09-06T03:43:23.476Z,100951.47
2022-09-06T03:45:53.578Z,100952.81
2022-09-06T03:48:22.816Z,100951.28
2022-09-06T03:50:54.278Z,100946.41
2022-09-06T03:53:23.349Z,100952.28
2022-09-06T03:55:53.258Z,100950.09
2022-09-06T03:58:23.698Z,100950.56
2022-09-06T04:01:04.568Z,100950.06
2022-09-06T04:03:33.133Z,100946.03
2022-09-06T04:06:01.120Z,100948.34
2022-09-06T04:08:29.018Z,100950.53
2022-09-06T04:10:57.835Z,100959.97
2022-09-06T04:13:27.166Z,100963.00
2022-09-06T04:15:55.230Z,100970.53
2022-09-06T04:18:23.299Z,100974.41
2022-09-06T04:20:52.993Z,100968.50
2022-09-06T04:23:20.957Z,100973.38
2022-09-06T04:25:50.191Z,100982.47
2022-09-06T04:28:18.718Z,100979.78
2022-09-06T04:30:55.546Z,100980.63
2022-09-06T04:33:26.451Z,100984.31
2022-09-06T04:35:56.984Z,100971.84
2022-09-06T04:38:25.858Z,100964.91
2022-09-06T04:40:55.580Z,100964.09
2022-09-06T04:43:23.708Z,100964.41
2022-09-06T04:45:51.638Z,100968.97
2022-09-06T04:48:19.500Z,100969.97
2022-09-06T04:50:47.065Z,100970.94
2022-09-06T04:53:14.674Z,100969.47
2022-09-06T04:55:42.175Z,100967.22
2022-09-06T04:58:09.737Z,100965.72
2022-09-06T05:00:38.868Z,100963.50
2022-09-06T05:03:06.796Z,100955.06
2022-09-06T05:05:35.894Z,100963.47
2022-09-06T05:08:03.634Z,100962.78
2022-09-06T05:10:31.120Z,100956.69
2022-09-06T05:12:58.718Z,100955.03
2022-09-06T05:15:26.310Z,100952.66
2022-09-06T05:17:53.883Z,100955.66
2022-09-06T05:20:21.816Z,100956.81
2022-09-06T05:22:54.395Z,100952.44
2022-09-06T05:25:22.206Z,100959.81
2022-09-06T05:27:49.758Z,100959.16
2022-09-06T05:30:18.439Z,100965.53
2022-09-06T05:32:45.944Z,100967.56
2022-09-06T05:35:13.632Z,100964.03
2022-09-06T05:37:41.118Z,100962.19
2022-09-06T05:40:09.300Z,100970.25
2022-09-06T05:42:37.103Z,100961.16
2022-09-06T05:45:06.866Z,100962.19
2022-09-06T05:47:35.611Z,100957.81
2022-09-06T05:50:03.746Z,100950.56
2022-09-06T05:52:40.498Z,100958.47
2022-09-06T05:55:16.150Z,100950.38
2022-09-06T05:57:46.168Z,100954.75
2022-09-06T06:00:14.230Z,100959.00
2022-09-06T06:02:42.083Z,100961.53
2022-09-06T06:05:09.865Z,100947.06
2022-09-06T06:07:37.426Z,100945.72
2022-09-06T06:10:05.413Z,100941.88
2022-09-06T06:12:33.448Z,100941.56
2022-09-06T06:15:01.011Z,100934.81
2022-09-06T06:17:28.557Z,100935.03
2022-09-06T06:19:56.092Z,100945.16
2022-09-06T06:22:23.596Z,100937.25
2022-09-06T06:24:51.174Z,100935.78
2022-09-06T06:27:18.797Z,100938.47
2022-09-06T06:29:46.341Z,100944.09
2022-09-06T06:32:13.955Z,100949.66
2022-09-06T06:34:41.547Z,100957.09
2022-09-06T06:37:09.160Z,100945.66
2022-09-06T06:39:37.169Z,100951.94
2022-09-06T06:42:04.916Z,100953.44
2022-09-06T06:44:46.792Z,100958.53
2022-09-06T06:47:14.441Z,100968.16
2022-09-06T06:49:42.014Z,100961.91
2022-09-06T06:52:09.611Z,100967.81
2022-09-06T06:54:37.603Z,100966.63
2022-09-06T06:57:05.507Z,100972.03
2022-09-06T06:59:33.243Z,100966.97
2022-09-06T07:02:01.206Z,100963.75
2022-09-06T07:04:28.868Z,100962.28
2022-09-06T07:12:32.463Z,100968.75
2022-09-06T07:15:00.310Z,100965.34
2022-09-06T07:17:28.402Z,100962.16
2022-09-06T07:22:39.738Z,100977.34
2022-09-06T07:25:09.132Z,100968.88
2022-09-06T07:30:11.910Z,100980.75
2022-09-06T07:32:39.474Z,100989.50
2022-09-06T07:35:07.604Z,100992.50
2022-09-06T07:37:35.552Z,100997.53
2022-09-06T07:40:04.393Z,101000.25
2022-09-06T07:42:36.559Z,100993.34
2022-09-06T07:45:05.516Z,100988.59
2022-09-06T07:53:13.969Z,100985.91
2022-09-06T07:55:43.416Z,100976.72
2022-09-06T07:58:11.216Z,100977.59
2022-09-06T08:00:41.326Z,100979.22
2022-09-06T08:03:09.277Z,100978.09
2022-09-06T08:11:14.195Z,100977.72
2022-09-06T08:13:42.890Z,100981.72
2022-09-06T08:16:12.549Z,100984.41
2022-09-06T08:18:40.295Z,100978.94
2022-09-06T08:21:13.424Z,100983.09
2022-09-06T08:23:44.968Z,100975.03
2022-09-06T08:26:12.973Z,100973.53
2022-09-06T08:28:40.506Z,100966.81
2022-09-06T08:31:10.211Z,100957.06
2022-09-06T08:33:38.888Z,100958.34
2022-09-06T08:36:07.335Z,100955.03
2022-09-06T08:38:35.776Z,100959.63
2022-09-06T08:41:44.721Z,100962.88
2022-09-06T08:47:21.961Z,100973.28
2022-09-06T08:49:54.953Z,100960.81
2022-09-06T08:56:13.571Z,100950.31
2022-09-06T08:58:44.567Z,100951.78
2022-09-06T09:01:18.447Z,100962.25
2022-09-06T09:03:47.188Z,100953.13
2022-09-06T09:06:14.730Z,100954.63
2022-09-06T09:09:14.648Z,100958.47
2022-09-06T09:11:49.961Z,100956.88
2022-09-06T09:14:17.651Z,100955.06
2022-09-06T09:16:45.418Z,100960.59
2022-09-06T09:19:13.618Z,100945.19
2022-09-06T09:21:41.768Z,100947.44
2022-09-06T09:24:12.330Z,100943.78
2022-09-06T09:26:58.199Z,100949.06
2022-09-06T09:29:29.401Z,100941.84
2022-09-06T09:31:58.233Z,100939.66
2022-09-06T09:34:33.985Z,100946.59
2022-09-06T09:40:34.878Z,100937.69
2022-09-06T09:43:30.883Z,100942.50
2022-09-06T09:46:33.246Z,100935.94
2022-09-06T09:49:28.727Z,100941.28
2022-09-06T09:52:13.634Z,100933.78
2022-09-06T09:54:44.569Z,100931.28
2022-09-06T09:57:17.877Z,100924.00
2022-09-06T09:59:58.387Z,100937.78
2022-09-06T10:02:31.240Z,100938.06
2022-09-06T10:05:04.924Z,100934.94
2022-09-06T10:07:34.211Z,100928.69
2022-09-06T10:10:11.167Z,100928.19
2022-09-06T10:12:41.580Z,100929.53
2022-09-06T10:15:33.082Z,100929.41
2022-09-06T10:18:00.942Z,100926.44
2022-09-06T10:20:38.406Z,100916.63
2022-09-06T10:23:12.061Z,100920.06
2022-09-06T10:25:48.904Z,100917.34
2022-09-06T10:28:29.782Z,100911.81
2022-09-06T10:31:22.418Z,100917.13
2022-09-06T10:34:11.758Z,100905.59
2022-09-06T10:36:44.579Z,100895.50
2022-09-06T10:39:33.771Z,100898.59
2022-09-06T10:42:22.403Z,100887.00
2022-09-06T10:45:18.848Z,100889.44
2022-09-06T10:47:49.390Z,100872.72
2022-09-06T10:50:17.515Z,100880.53
2022-09-06T10:52:48.866Z,100866.59
2022-09-06T10:55:18.783Z,100869.63
2022-09-06T11:00:47.487Z,100861.25
2022-09-06T11:06:31.711Z,100866.41
2022-09-06T11:09:17.363Z,100864.06
2022-09-06T11:11:47.765Z,100855.72
2022-09-06T11:14:15.957Z,100855.53
2022-09-06T11:16:52.012Z,100848.16
2022-09-06T11:19:28.674Z,100849.50
2022-09-06T11:22:10.682Z,100844.31
2022-09-06T11:24:49.353Z,100846.31
2022-09-06T11:27:32.260Z,100843.78
2022-09-06T11:30:01.761Z,100845.03
2022-09-06T11:32:35.043Z,100846.09
2022-09-06T11:35:20.606Z,100833.31
2022-09-06T11:37:57.385Z,100833.97
2022-09-06T11:40:36.612Z,100827.94
2022-09-06T11:43:04.392Z,100833.22
2022-09-06T11:45:45.922Z,100819.53
2022-09-06T11:49:06.148Z,100818.59
2022-09-06T11:51:38.032Z,100814.09
2022-09-06T11:54:33.248Z,100807.44
2022-09-06T11:57:15.410Z,100806.13
2022-09-06T11:59:46.012Z,100809.44
2022-09-06T12:05:07.379Z,100799.28
2022-09-06T12:07:54.629Z,100797.81
2022-09-06T12:10:31.364Z,100794.75
2022-09-06T12:12:59.032Z,100792.03
2022-09-06T12:15:32.974Z,100790.38
2022-09-06T12:18:01.047Z,100789.34
2022-09-06T12:20:54.428Z,100794.16
2022-09-06T12:23:37.198Z,100788.34
2022-09-06T12:26:07.008Z,100783.78
2022-09-06T12:29:09.492Z,100780.44
2022-09-06T12:31:43.651Z,100777.84
2022-09-06T12:34:21.319Z,100776.97
2022-09-06T12:37:01.255Z,100775.91
2022-09-06T12:39:28.937Z,100768.56
2022-09-06T12:42:01.442Z,100767.66
2022-09-06T12:44:36.382Z,100766.97
2022-09-06T12:47:14.400Z,100756.72
2022-09-06T12:49:41.967Z,100751.03
2022-09-06T12:52:12.457Z,100752.53
2022-09-06T12:54:49.461Z,100742.91
2022-09-06T12:57:23.586Z,100743.44
2022-09-06T12:59:56.951Z,100744.50
2022-09-06T13:02:35.588Z,100743.50
2022-09-06T13:05:09.744Z,100736.41
2022-09-06T13:07:45.121Z,100742.88
2022-09-06T13:10:19.469Z,100746.13
2022-09-06T13:12:51.114Z,100737.13
2022-09-06T13:15:22.824Z,100725.16
2022-09-06T13:17:50.632Z,100725.69
2022-09-06T13:20:21.088Z,100716.94
2022-09-06T13:22:51.304Z,100717.63
2022-09-06T13:25:21.555Z,100715.94
2022-09-06T13:27:51.509Z,100717.41
2022-09-06T13:30:42.516Z,100708.81
2022-09-06T13:33:41.194Z,100702.25
2022-09-06T13:36:11.477Z,100699.25
2022-09-06T13:38:39.048Z,100701.22
2022-09-06T13:41:41.344Z,100696.34
2022-09-06T13:44:11.665Z,100705.94
2022-09-06T13:46:39.245Z,100708.78
2022-09-06T13:49:07.632Z,100713.50
2022-09-06T13:51:38.015Z,100709.47
2022-09-06T13:54:10.598Z,100714.53
2022-09-06T13:56:39.397Z,100714.66
2022-09-06T13:59:09.885Z,100720.00
2022-09-06T14:01:39.437Z,100724.47
2022-09-06T14:04:07.696Z,100721.22
2022-09-06T14:06:37.007Z,100717.09
2022-09-06T14:09:07.636Z,100719.06
2022-09-06T14:11:36.248Z,100712.69
2022-09-06T14:14:04.353Z,100709.91
2022-09-06T14:16:33.899Z,100710.28
2022-09-06T14:19:01.795Z,100720.38
2022-09-06T14:21:29.391Z,100726.88
2022-09-06T14:24:03.336Z,100717.16
2022-09-06T14:26:33.285Z,100714.16
2022-09-06T14:29:01.034Z,100715.41
2022-09-06T14:31:29.810Z,100719.56
2022-09-06T14:33:58.146Z,100710.94
2022-09-06T14:36:29.326Z,100714.13
2022-09-06T14:38:58.679Z,100708.00
2022-09-06T14:41:26.746Z,100705.69
2022-09-06T14:43:57.276Z,100693.25
2022-09-06T14:46:26.827Z,100691.38
2022-09-06T14:49:00.855Z,100691.06
2022-09-06T14:51:30.256Z,100693.44
2022-09-06T14:54:02.026Z,100681.31
2022-09-06T14:56:30.458Z,100666.19
2022-09-06T14:58:59.963Z,100661.97
2022-09-06T15:01:33.018Z,100650.88
2022-09-06T15:04:10.133Z,100642.94
2022-09-06T15:06:40.771Z,100641.28
2022-09-06T15:09:11.492Z,100643.47
2022-09-06T15:11:48.916Z,100650.41
2022-09-06T15:14:22.542Z,100670.69
2022-09-06T15:16:55.953Z,100667.34
2022-09-06T15:19:25.107Z,100655.09
2022-09-06T15:21:55.304Z,100644.81
2022-09-06T15:24:23.341Z,100624.47
2022-09-06T15:26:51.091Z,100615.22
2022-09-06T15:29:20.472Z,100626.69
2022-09-06T15:31:50.635Z,100632.91
2022-09-06T15:34:20.196Z,100644.38
2022-09-06T15:36:47.834Z,100642.22
2022-09-06T15:39:15.545Z,100627.34
2022-09-06T15:41:43.207Z,100626.69
2022-09-06T15:44:13.106Z,100626.88
2022-09-06T15:46:43.753Z,100617.06
2022-09-06T15:49:14.772Z,100626.69
2022-09-06T15:51:42.936Z,100637.66
2022-09-06T15:54:12.056Z,100651.28
2022-09-06T15:56:39.858Z,100663.59
2022-09-06T15:59:07.966Z,100668.31
2022-09-06T16:01:35.738Z,100670.50
2022-09-06T16:04:06.233Z,100674.69
2022-09-06T16:06:37.785Z,100683.25
2022-09-06T16:09:17.748Z,100677.53
2022-09-06T16:11:45.685Z,100685.75
2022-09-06T16:14:15.474Z,100682.38
2022-09-06T16:16:43.570Z,100695.69
2022-09-06T16:19:12.740Z,100693.16
2022-09-06T16:21:43.775Z,100696.97
2022-09-06T16:24:13.325Z,100693.63
2022-09-06T16:26:43.838Z,100691.78
2022-09-06T16:29:13.382Z,100679.81
2022-09-06T16:31:41.347Z,100667.84
2022-09-06T16:34:10.312Z,100668.06
2022-09-06T16:36:38.378Z,100662.81
2022-09-06T16:39:07.351Z,100665.50
2022-09-06T16:41:40.664Z,100658.44
2022-09-06T16:44:10.277Z,100654.41
2022-09-06T16:46:40.264Z,100652.91
2022-09-06T16:49:08.599Z,100647.56
2022-09-06T16:51:36.649Z,100647.41
2022-09-06T16:54:04.600Z,100649.91
2022-09-06T16:56:35.819Z,100643.16
2022-09-06T16:59:06.554Z,100642.47
2022-09-06T17:01:35.275Z,100642.31
2022-09-06T17:04:04.140Z,100628.97
2022-09-06T17:06:33.285Z,100632.34
2022-09-06T17:09:00.842Z,100625.25
2022-09-06T17:11:29.302Z,100617.84
2022-09-06T17:13:58.193Z,100627.94
2022-09-06T17:16:44.642Z,100619.72
2022-09-06T17:19:14.017Z,100608.13
2022-09-06T17:21:41.942Z,100609.00
2022-09-06T17:24:09.727Z,100601.09
2022-09-06T17:26:39.397Z,100610.19
2022-09-06T17:29:07.786Z,100600.41
2022-09-06T17:31:36.919Z,100607.00
2022-09-06T17:34:05.379Z,100613.56
2022-09-06T17:36:34.153Z,100609.34
2022-09-06T17:39:08.199Z,100608.69
2022-09-06T17:41:41.756Z,100599.28
2022-09-06T17:44:11.663Z,100594.38
2022-09-06T17:46:47.949Z,100594.06
2022-09-06T17:49:28.338Z,100594.22
2022-09-06T17:51:56.712Z,100587.50
2022-09-06T17:54:24.592Z,100580.94
2022-09-06T17:56:52.426Z,100586.69
2022-09-06T17:59:20.138Z,100590.22
2022-09-06T18:01:47.729Z,100577.94
2022-09-06T18:04:16.134Z,100581.31
2022-09-06T18:06:46.387Z,100580.16
2022-09-06T18:09:17.668Z,100574.41
2022-09-06T18:11:46.865Z,100575.94
2022-09-06T18:14:17.562Z,100578.81
2022-09-06T18:16:47.473Z,100577.75
2022-09-06T18:19:16.324Z,100577.06
2022-09-06T18:21:44.207Z,100575.34
2022-09-06T18:24:13.864Z,100569.66
2022-09-06T18:26:43.109Z,100571.66
2022-09-06T18:29:16.771Z,100564.75
2022-09-06T18:31:44.933Z,100561.88
2022-09-06T18:34:12.743Z,100566.59
2022-09-06T18:36:40.835Z,100574.16
2022-09-06T18:39:08.745Z,100577.00
2022-09-06T18:41:55.379Z,100586.22
2022-09-06T18:44:23.146Z,100588.25
2022-09-06T18:46:50.785Z,100591.94
2022-09-06T18:49:18.513Z,100582.50
2022-09-06T18:51:46.574Z,100583.69
2022-09-06T18:54:14.778Z,100582.31
2022-09-06T18:56:44.925Z,100576.28
2022-09-06T18:59:13.961Z,100577.59
2022-09-06T19:01:43.122Z,100564.81
2022-09-06T19:04:12.280Z,100561.44
2022-09-06T19:06:43.621Z,100566.97
2022-09-06T19:09:14.389Z,100571.69
2022-09-06T19:11:43.512Z,100573.88
2022-09-06T19:14:11.640Z,100580.41
2022-09-06T19:16:39.330Z,100587.09
2022-09-06T19:19:09.006Z,100584.56
2022-09-06T19:21:41.457Z,100584.88
2022-09-06T19:24:12.994Z,100582.50
2022-09-06T19:26:43.467Z,100582.84
2022-09-06T19:29:18.875Z,100582.31
2022-09-06T19:31:47.509Z,100581.47
2022-09-06T19:34:16.233Z,100583.47
2022-09-06T19:36:44.971Z,100581.09
2022-09-06T19:39:14.963Z,100590.19
2022-09-06T19:41:45.215Z,100598.22
2022-09-06T19:44:14.713Z,100594.84
2022-09-06T19:46:46.132Z,100591.66
2022-09-06T19:49:19.682Z,100592.97
2022-09-06T19:51:48.985Z,100603.88
2022-09-06T19:54:17.390Z,100607.72
2022-09-06T19:56:46.033Z,100603.50
2022-09-06T19:59:14.805Z,100608.16
2022-09-06T20:01:44.642Z,100610.00
2022-09-06T20:04:13.493Z,100603.97
2022-09-06T20:06:41.297Z,100603.09
2022-09-06T20:09:10.734Z,100603.28
2022-09-06T20:11:40.177Z,100612.16
2022-09-06T20:14:08.640Z,100604.09
2022-09-06T20:16:41.131Z,100609.47
2022-09-06T20:19:10.788Z,100601.41
2022-09-06T20:21:38.387Z,100605.78
2022-09-06T20:24:06.197Z,100606.19
2022-09-06T20:26:33.805Z,100613.63
2022-09-06T20:29:03.220Z,100605.59
2022-09-06T20:31:32.856Z,100606.69
2022-09-06T20:34:02.070Z,100611.41
2022-09-06T20:36:30.289Z,100601.31
2022-09-06T20:38:57.904Z,100594.78
2022-09-06T20:41:27.158Z,100596.31
2022-09-06T20:43:59.598Z,100590.63
2022-09-06T20:46:29.845Z,100578.88
2022-09-06T20:48:59.888Z,100585.78
2022-09-06T20:51:27.844Z,100578.22
2022-09-06T20:53:58.145Z,100580.91
2022-09-06T20:56:31.269Z,100582.44
2022-09-06T20:59:01.178Z,100581.25
2022-09-06T21:01:31.185Z,100585.66
2022-09-06T21:04:00.381Z,100581.09
2022-09-06T21:06:30.514Z,100576.41
2022-09-06T21:08:58.342Z,100589.88
2022-09-06T21:11:26.591Z,100589.50
2022-09-06T21:13:56.435Z,100582.97
2022-09-06T21:16:26.458Z,100584.81
2022-09-06T21:18:56.381Z,100580.28
2022-09-06T21:21:25.577Z,100578.44
2022-09-06T21:23:54.107Z,100567.69
2022-09-06T21:26:22.541Z,100566.31
2022-09-06T21:28:50.661Z,100571.03
2022-09-06T21:31:23.967Z,100563.81
2022-09-06T21:33:53.848Z,100560.94
2022-09-06T21:36:29.377Z,100558.13
2022-09-06T21:39:02.080Z,100558.25
2022-09-06T21:41:30.460Z,100550.19
2022-09-06T21:43:59.825Z,100549.88
2022-09-06T21:46:33.374Z,100550.72
2022-09-06T21:49:08.044Z,100538.09
2022-09-06T21:51:36.506Z,100531.38
2022-09-06T21:54:05.127Z,100532.22
2022-09-06T21:56:36.022Z,100533.06
2022-09-06T21:59:05.114Z,100536.28
2022-09-06T22:01:34.775Z,100526.03
2022-09-06T22:04:03.435Z,100526.69
2022-09-06T22:06:32.927Z,100523.69
2022-09-06T22:09:04.536Z,100518.31
2022-09-06T22:11:34.272Z,100511.25
2022-09-06T22:14:04.801Z,100496.47
2022-09-06T22:16:34.722Z,100504.03
2022-09-06T22:19:04.908Z,100505.19
2022-09-06T22:21:33.727Z,100503.00
2022-09-06T22:24:04.007Z,100502.81
2022-09-06T22:26:33.411Z,100497.63
2022-09-06T22:29:03.649Z,100485.84
2022-09-06T22:31:32.910Z,100484.00
2022-09-06T22:34:01.048Z,100475.94
2022-09-06T22:36:28.968Z,100469.72
2022-09-06T22:38:57.721Z,100463.34
2022-09-06T22:41:27.252Z,100468.03
2022-09-06T22:43:55.214Z,100464.00
2022-09-06T22:46:23.089Z,100467.00
2022-09-06T22:48:50.778Z,100472.06
2022-09-06T22:51:18.338Z,100467.00
2022-09-06T22:56:27.351Z,100473.88
2022-09-06T22:58:54.859Z,100478.41
2022-09-06T23:01:22.513Z,100468.63
2022-09-06T23:03:51.237Z,100471.31
2022-09-06T23:06:18.860Z,100477.72
2022-09-06T23:08:46.456Z,100476.03
2022-09-06T23:11:16.551Z,100474.38
2022-09-06T23:13:44.823Z,100476.19
2022-09-06T23:16:15.345Z,100477.72
2022-09-06T23:18:43.779Z,100486.97
2022-09-06T23:21:22.329Z,100480.44
2022-09-06T23:23:51.931Z,100475.06
2022-09-06T23:26:22.941Z,100482.81
2022-09-06T23:28:56.412Z,100480.78
2022-09-06T23:31:26.095Z,100470.19
2022-09-06T23:33:55.499Z,100473.72
2022-09-06T23:36:23.844Z,100472.72
2022-09-06T23:38:51.593Z,100476.94
2022-09-06T23:41:19.287Z,100473.06
2022-09-06T23:43:46.864Z,100479.97
2022-09-06T23:46:17.153Z,100470.72
2022-09-06T23:48:44.896Z,100469.72
2022-09-06T23:51:13.014Z,100460.47
2022-09-06T23:53:40.714Z,100455.78
2022-09-06T23:56:08.567Z,100453.59
2022-09-06T23:58:36.957Z,100454.44
